Time;durP1;ratioP1;P1;durP2;ratioP2;P2;SDS_P1;SDS_P2;PMS_P1;PMS_P2;Temp;Humidity;BMP_temperature;BMP_pressure;BME280_temperature;BME280_humidity;BME280_pressure;Samples;Min_cycle;Max_cycle;Signal;HPM_P1;HPM_P2
2023/01/14 00:01:51;;;;;;;10.95;1.73;;;5.80;71.50;;;;;;4975549;28;20075;-77
2023/01/14 00:04:17;;;;;;;5.90;1.10;;;5.80;71.50;;;;;;4975504;28;20406;-77
2023/01/14 00:06:42;;;;;;;6.30;1.10;;;5.70;71.60;;;;;;4975386;28;20019;-77
2023/01/14 00:09:12;;;;;;;5.95;1.13;;;5.70;72.10;;;;;;4975504;28;20030;-76
2023/01/14 00:11:47;;;;;;;7.68;1.50;;;5.60;72.20;;;;;;4959629;28;20088;-77
2023/01/14 00:14:31;;;;;;;7.07;1.30;;;5.70;72.80;;;;;;4993018;28;20033;-77
2023/01/14 00:16:58;;;;;;;10.38;2.05;;;5.70;73.00;;;;;;4977018;28;20040;-77
2023/01/14 00:19:25;;;;;;;6.15;1.52;;;5.70;72.50;;;;;;4975551;28;20022;-77
2023/01/14 00:21:52;;;;;;;7.10;1.10;;;5.70;73.00;;;;;;4975492;28;20030;-77
2023/01/14 00:24:19;;;;;;;4.65;0.90;;;5.60;73.40;;;;;;4980773;28;20057;-77
2023/01/14 00:26:48;;;;;;;6.38;1.23;;;5.60;73.50;;;;;;4975468;28;20034;-77
2023/01/14 00:29:16;;;;;;;4.85;1.13;;;5.60;74.20;;;;;;4990107;28;20052;-77
2023/01/14 00:31:44;;;;;;;9.50;1.25;;;5.60;74.50;;;;;;5056788;28;20028;-77
2023/01/14 00:34:10;;;;;;;6.15;1.27;;;5.60;75.40;;;;;;5056383;28;20037;-77
2023/01/14 00:36:35;;;;;;;5.95;1.25;;;5.60;75.50;;;;;;5056624;28;20021;-76
2023/01/14 00:39:01;;;;;;;5.53;1.33;;;5.50;75.60;;;;;;5056580;28;20025;-77
2023/01/14 00:41:28;;;;;;;7.40;1.23;;;5.60;75.90;;;;;;5056514;28;20017;-77
2023/01/14 00:43:55;;;;;;;4.22;1.05;;;5.50;76.30;;;;;;5056470;28;20520;-76
2023/01/14 00:46:27;;;;;;;5.57;1.00;;;5.50;76.10;;;;;;5056552;28;20036;-77
2023/01/14 00:48:53;;;;;;;5.60;1.08;;;5.60;75.90;;;;;;5056581;28;20063;-77
2023/01/14 00:51:19;;;;;;;3.38;0.85;;;5.60;75.70;;;;;;5056443;28;20058;-77
2023/01/14 00:53:46;;;;;;;6.72;1.55;;;5.60;75.60;;;;;;5055974;28;20535;-76
2023/01/14 00:56:12;;;;;;;3.28;0.80;;;5.70;75.30;;;;;;5056184;28;20111;-76
2023/01/14 00:58:38;;;;;;;7.03;1.02;;;5.70;74.60;;;;;;5056046;28;20021;-77
2023/01/14 01:01:04;;;;;;;8.25;1.38;;;5.70;74.20;;;;;;5056260;28;20032;-76
2023/01/14 01:03:30;;;;;;;5.47;0.90;;;5.70;74.20;;;;;;5055896;28;20354;-76
2023/01/14 01:05:56;;;;;;;6.97;1.00;;;5.70;75.20;;;;;;5056002;28;20125;-76
2023/01/14 01:08:23;;;;;;;4.32;0.88;;;5.60;75.30;;;;;;5056105;28;20479;-76
2023/01/14 01:10:51;;;;;;;4.25;0.77;;;5.50;75.70;;;;;;5055724;28;20473;-76
2023/01/14 01:13:18;;;;;;;6.53;1.00;;;5.50;75.80;;;;;;5056043;28;20028;-77
2023/01/14 01:15:43;;;;;;;4.07;1.10;;;5.40;75.80;;;;;;5056264;28;20081;-77
2023/01/14 01:18:11;;;;;;;8.85;1.00;;;5.40;75.80;;;;;;5056287;28;20366;-78
2023/01/14 01:20:37;;;;;;;3.67;1.00;;;5.40;75.70;;;;;;5056146;28;20028;-76
2023/01/14 01:23:04;;;;;;;11.95;1.02;;;5.40;75.30;;;;;;5055907;28;20024;-75
2023/01/14 01:25:30;;;;;;;3.63;0.82;;;5.40;75.60;;;;;;5055514;28;20028;-76
2023/01/14 01:27:56;;;;;;;8.30;1.13;;;5.50;75.20;;;;;;5055263;28;20325;-78
2023/01/14 01:30:23;;;;;;;10.38;1.33;;;5.50;75.30;;;;;;5055770;28;20032;-77
2023/01/14 01:32:48;;;;;;;8.05;1.45;;;5.50;75.40;;;;;;5055918;28;20143;-77
2023/01/14 01:35:14;;;;;;;7.35;0.93;;;5.40;75.40;;;;;;5055892;28;20297;-77
2023/01/14 01:37:39;;;;;;;3.60;0.93;;;5.40;75.80;;;;;;5055542;28;20109;-79
2023/01/14 01:40:06;;;;;;;4.30;1.00;;;5.30;76.40;;;;;;5055643;28;20028;-78
2023/01/14 01:42:35;;;;;;;9.90;1.42;;;5.30;77.60;;;;;;5055586;28;20025;-77
2023/01/14 01:45:19;;;;;;;8.65;1.20;;;5.30;77.20;;;;;;5055617;28;20021;-77
2023/01/14 01:47:44;;;;;;;4.63;0.90;;;5.30;77.30;;;;;;5072213;28;20032;-77
2023/01/14 01:50:10;;;;;;;5.78;0.90;;;5.30;76.90;;;;;;5055528;28;20021;-77
2023/01/14 01:52:36;;;;;;;7.10;1.00;;;5.20;76.70;;;;;;5055252;28;20029;-77
2023/01/14 01:55:06;;;;;;;6.50;1.02;;;5.30;76.70;;;;;;5055141;28;20465;-76
2023/01/14 01:57:32;;;;;;;6.35;1.30;;;5.30;76.30;;;;;;5055206;28;20021;-76
2023/01/14 02:00:03;;;;;;;6.40;1.20;;;5.20;76.30;;;;;;5055324;28;20035;-77
2023/01/14 02:02:29;;;;;;;8.48;1.27;;;5.30;76.50;;;;;;5055398;28;20059;-77
2023/01/14 02:04:55;;;;;;;6.07;1.23;;;5.30;75.90;;;;;;5055261;28;20027;-77
2023/01/14 02:07:25;;;;;;;5.80;1.08;;;5.40;75.70;;;;;;5054953;28;20021;-77
2023/01/14 02:10:00;;;;;;;6.47;0.82;;;5.40;75.60;;;;;;5072784;28;20415;-76
2023/01/14 02:12:47;;;;;;;4.30;1.23;;;5.30;75.80;;;;;;5055011;28;20058;-76
2023/01/14 02:15:30;;;;;;;6.43;0.70;;;5.30;75.90;;;;;;5054974;28;20036;-76
2023/01/14 02:18:19;;;;;;;4.25;0.93;;;5.30;76.10;;;;;;5055169;28;20451;-78
2023/01/14 02:20:57;;;;;;;6.90;1.17;;;5.30;75.80;;;;;;5055359;28;20028;-77
2023/01/14 02:23:44;;;;;;;3.40;1.02;;;5.20;75.70;;;;;;5055349;28;20027;-77
2023/01/14 02:26:25;;;;;;;11.23;1.52;;;5.20;75.30;;;;;;5055285;28;20385;-76
2023/01/14 02:28:59;;;;;;;5.53;0.80;;;5.10;75.00;;;;;;5055382;28;20131;-77
2023/01/14 02:31:28;;;;;;;6.80;1.40;;;5.10;74.40;;;;;;5055076;28;20086;-78
2023/01/14 02:33:56;;;;;;;4.13;0.73;;;5.10;74.30;;;;;;5055131;28;20066;-76
2023/01/14 02:36:39;;;;;;;7.07;1.50;;;5.10;74.20;;;;;;5055108;28;20025;-76
2023/01/14 02:39:23;;;;;;;4.47;1.20;;;5.10;74.60;;;;;;5055022;28;20047;-76
2023/01/14 02:45:06;;;;;;;8.15;1.33;;;5.20;73.10;;;;;;5073127;28;20047;-76
2023/01/14 02:47:33;;;;;;;5.35;1.15;;;5.30;73.20;;;;;;5055309;28;20028;-77
2023/01/14 02:50:00;;;;;;;11.75;1.58;;;5.30;73.30;;;;;;5054776;28;20024;-76
2023/01/14 02:52:26;;;;;;;9.20;1.27;;;5.40;73.50;;;;;;5054780;28;20107;-76
2023/01/14 02:55:02;;;;;;;6.00;1.13;;;5.30;73.90;;;;;;5054956;28;20163;-78
2023/01/14 02:57:32;;;;;;;4.20;1.10;;;5.40;74.10;;;;;;5038635;28;20048;-78
2023/01/14 03:00:27;;;;;;;8.70;1.67;;;5.40;74.10;;;;;;5054707;28;20135;-79
2023/01/14 03:03:16;;;;;;;5.90;1.17;;;5.40;74.00;;;;;;5043947;28;20060;-76
2023/01/14 03:06:12;;;;;;;5.22;1.20;;;5.40;73.60;;;;;;5054786;28;20354;-76
2023/01/14 03:08:53;;;;;;;9.93;1.58;;;5.50;73.80;;;;;;5048160;28;20124;-78
2023/01/14 03:11:19;;;;;;;10.07;1.63;;;5.50;73.60;;;;;;5054810;28;20488;-78
2023/01/14 03:14:16;;;;;;;6.85;1.80;;;5.50;73.50;;;;;;5054304;28;20029;-77
2023/01/14 03:16:46;;;;;;;8.18;1.65;;;5.50;73.50;;;;;;5054531;28;20024;-78
2023/01/14 03:19:21;;;;;;;8.90;1.75;;;5.40;73.70;;;;;;5054592;28;20024;-76
2023/01/14 03:21:54;;;;;;;7.15;1.27;;;5.40;73.70;;;;;;5055429;28;20048;-76
2023/01/14 03:24:29;;;;;;;10.55;1.60;;;5.40;74.70;;;;;;5057780;28;20548;-75
2023/01/14 03:26:59;;;;;;;8.77;1.67;;;5.30;73.80;;;;;;5058043;28;20485;-76
2023/01/14 03:29:42;;;;;;;11.30;2.53;;;5.30;73.60;;;;;;5057986;28;20043;-77
2023/01/14 03:32:32;;;;;;;11.63;2.00;;;5.40;73.40;;;;;;5057864;28;20115;-77
2023/01/14 03:35:07;;;;;;;11.52;1.67;;;5.40;73.20;;;;;;5057918;28;20035;-77
2023/01/14 03:37:33;;;;;;;10.57;1.90;;;5.40;73.10;;;;;;5076073;28;20033;-80
2023/01/14 03:40:03;;;;;;;10.70;2.25;;;5.40;72.90;;;;;;5058094;28;20029;-79
2023/01/14 03:42:37;;;;;;;18.45;2.53;;;5.40;72.80;;;;;;5075758;28;20029;-79
2023/01/14 03:45:11;;;;;;;10.73;1.75;;;5.40;73.00;;;;;;5075458;28;20024;-78
2023/01/14 03:47:38;;;;;;;6.90;1.33;;;5.40;73.50;;;;;;5057657;28;20424;-79
2023/01/14 03:50:09;;;;;;;12.98;2.78;;;5.30;73.70;;;;;;5075294;28;20024;-78
2023/01/14 03:52:51;;;;;;;10.75;1.40;;;5.30;73.60;;;;;;5057668;28;20032;-79
2023/01/14 03:55:38;;;;;;;14.18;1.70;;;5.40;73.20;;;;;;5057100;28;20076;-79
2023/01/14 03:58:32;;;;;;;10.23;1.90;;;5.30;73.10;;;;;;5057665;28;20032;-79
2023/01/14 04:01:15;;;;;;;13.02;2.65;;;5.40;72.50;;;;;;5057616;28;20025;-78
2023/01/14 04:03:43;;;;;;;8.10;1.55;;;5.40;72.40;;;;;;5075075;28;20025;-79
2023/01/14 04:06:11;;;;;;;10.93;1.67;;;5.40;72.40;;;;;;5057586;28;20028;-79
2023/01/14 04:08:37;;;;;;;9.38;1.73;;;5.50;72.80;;;;;;5040652;28;20029;-78
2023/01/14 04:11:02;;;;;;;11.55;1.58;;;5.40;73.20;;;;;;5057014;28;20388;-78
2023/01/14 04:16:13;;;;;;;10.68;1.92;;;5.30;73.80;;;;;;5060142;28;20447;-79
2023/01/14 04:18:38;;;;;;;8.85;1.58;;;5.30;74.10;;;;;;5057527;28;20020;-79
2023/01/14 04:21:04;;;;;;;8.23;1.63;;;5.20;74.50;;;;;;5057248;28;20029;-78
2023/01/14 04:23:29;;;;;;;10.50;2.15;;;5.20;75.20;;;;;;5057256;28;20020;-78
2023/01/14 04:25:59;;;;;;;9.63;2.25;;;5.00;75.80;;;;;;5056500;28;20102;-78
2023/01/14 04:28:26;;;;;;;10.95;2.30;;;4.90;76.00;;;;;;5056818;28;20173;-78
2023/01/14 04:30:53;;;;;;;11.60;1.90;;;4.90;76.40;;;;;;5074711;28;20513;-79
2023/01/14 04:33:20;;;;;;;8.07;2.00;;;4.80;76.60;;;;;;5056594;28;20465;-78
2023/01/14 04:35:49;;;;;;;9.32;2.28;;;4.80;77.00;;;;;;5056693;28;20495;-80
2023/01/14 04:38:16;;;;;;;7.40;1.55;;;4.80;77.30;;;;;;5058000;28;20079;-78
2023/01/14 04:40:42;;;;;;;7.10;1.92;;;4.70;77.40;;;;;;5064811;28;20051;-80
2023/01/14 04:43:08;;;;;;;11.05;2.05;;;4.70;77.80;;;;;;5066938;28;20024;-80
2023/01/14 04:45:37;;;;;;;8.15;1.50;;;4.60;78.30;;;;;;5080993;28;20099;-80
2023/01/14 04:48:03;;;;;;;11.30;1.85;;;4.60;78.60;;;;;;5060712;28;20414;-80
2023/01/14 04:50:32;;;;;;;6.00;1.15;;;4.60;78.90;;;;;;5059702;28;20020;-79
2023/01/14 04:53:27;;;;;;;7.82;1.45;;;4.50;79.10;;;;;;5057179;28;20025;-79
2023/01/14 04:55:55;;;;;;;9.52;1.88;;;4.60;80.20;;;;;;5039379;28;20052;-79
2023/01/14 04:58:21;;;;;;;8.32;1.25;;;4.50;79.40;;;;;;5041770;28;20580;-80
2023/01/14 05:00:47;;;;;;;9.55;1.52;;;4.60;80.10;;;;;;5056651;28;20028;-81
2023/01/14 05:03:14;;;;;;;8.93;2.25;;;4.60;79.10;;;;;;5056999;28;20032;-81
2023/01/14 05:05:41;;;;;;;12.38;2.50;;;4.60;79.10;;;;;;5074618;28;20024;-80
2023/01/14 05:08:08;;;;;;;7.53;1.77;;;4.70;79.30;;;;;;5056294;28;20111;-79
2023/01/14 05:10:35;;;;;;;13.85;3.00;;;4.60;79.40;;;;;;5056432;28;20027;-77
2023/01/14 05:13:02;;;;;;;9.63;2.10;;;4.60;79.90;;;;;;5056368;28;20060;-80
2023/01/14 05:15:31;;;;;;;18.85;2.45;;;4.50;80.20;;;;;;5056063;28;20082;-78
2023/01/14 05:17:57;;;;;;;12.52;2.60;;;4.60;80.60;;;;;;5056120;28;20021;-79
2023/01/14 05:20:24;;;;;;;15.15;3.42;;;4.60;81.00;;;;;;5056061;28;20021;-78
2023/01/14 05:22:50;;;;;;;16.45;3.35;;;4.60;81.00;;;;;;5055851;28;20029;-79
2023/01/14 05:25:16;;;;;;;16.23;3.17;;;4.60;81.10;;;;;;5056241;28;20028;-80
2023/01/14 05:27:42;;;;;;;12.18;2.60;;;4.60;81.10;;;;;;5056189;28;20473;-79
2023/01/14 05:30:09;;;;;;;17.02;3.10;;;4.60;81.20;;;;;;5055688;28;20021;-79
2023/01/14 05:32:34;;;;;;;17.45;2.90;;;4.60;81.20;;;;;;5055899;28;20420;-79
2023/01/14 05:35:00;;;;;;;10.93;1.90;;;4.60;81.30;;;;;;5055723;28;20032;-76
2023/01/14 05:37:25;;;;;;;11.40;2.50;;;4.60;81.40;;;;;;5055471;28;20416;-77
2023/01/14 05:39:52;;;;;;;8.90;1.88;;;4.70;81.40;;;;;;5055539;28;20476;-77
2023/01/14 05:47:45;;;;;;;20.33;3.08;;;4.70;81.30;;;;;;5073659;28;20124;-78
2023/01/14 05:50:12;;;;;;;15.43;2.70;;;4.70;81.20;;;;;;5055887;28;20473;-78
2023/01/14 05:52:37;;;;;;;16.67;2.80;;;4.80;81.20;;;;;;5055414;28;20021;-78
2023/01/14 05:55:04;;;;;;;15.40;3.15;;;4.80;81.10;;;;;;5055121;28;20566;-78
2023/01/14 05:57:30;;;;;;;17.88;2.97;;;4.80;81.00;;;;;;5055524;28;20020;-79
2023/01/14 05:59:56;;;;;;;11.10;2.10;;;4.80;80.80;;;;;;5055175;28;20401;-75
2023/01/14 06:07:52;;;;;;;14.02;3.40;;;5.00;80.70;;;;;;5073249;28;20078;-76
2023/01/14 06:10:17;;;;;;;15.23;2.47;;;5.00;80.60;;;;;;5054898;28;20024;-76
2023/01/14 06:12:58;;;;;;;13.38;2.22;;;5.00;80.50;;;;;;5054899;28;20070;-76
2023/01/14 06:15:25;;;;;;;17.80;2.92;;;5.10;80.50;;;;;;5054870;28;20052;-77
2023/01/14 06:18:08;;;;;;;12.68;2.25;;;5.10;80.50;;;;;;5055053;28;20059;-77
2023/01/14 06:20:37;;;;;;;12.02;2.60;;;5.10;80.50;;;;;;5057087;28;20036;-76
2023/01/14 06:23:03;;;;;;;14.75;2.60;;;5.10;80.40;;;;;;5055192;28;20107;-75
2023/01/14 06:25:30;;;;;;;9.40;2.20;;;5.10;80.40;;;;;;5055311;28;20029;-75
2023/01/14 06:27:56;;;;;;;13.32;2.80;;;5.20;80.20;;;;;;5055340;28;20119;-75
2023/01/14 06:30:22;;;;;;;11.90;2.85;;;5.20;80.20;;;;;;5038499;28;20037;-75
2023/01/14 06:32:48;;;;;;;15.30;2.78;;;5.20;80.00;;;;;;5054935;28;20031;-75
2023/01/14 06:35:13;;;;;;;12.80;3.15;;;5.30;79.80;;;;;;5054482;28;20430;-75
2023/01/14 06:37:43;;;;;;;13.80;2.83;;;5.40;79.70;;;;;;5054892;28;20423;-79
2023/01/14 06:40:10;;;;;;;13.60;2.05;;;5.30;79.60;;;;;;5054877;28;20025;-77
2023/01/14 06:42:36;;;;;;;13.18;2.33;;;5.30;79.50;;;;;;5072862;28;20437;-76
2023/01/14 06:45:02;;;;;;;10.20;2.42;;;5.40;79.50;;;;;;5054604;28;20112;-76
2023/01/14 06:47:27;;;;;;;10.82;2.33;;;5.40;79.50;;;;;;5038234;28;20025;-76
2023/01/14 06:49:53;;;;;;;12.80;2.30;;;5.40;80.20;;;;;;5037930;28;20055;-76
2023/01/14 06:52:19;;;;;;;11.93;2.17;;;5.50;79.50;;;;;;5044812;28;20111;-77
2023/01/14 06:54:44;;;;;;;11.27;2.10;;;5.40;79.10;;;;;;4972160;28;20494;-76
2023/01/14 06:57:15;;;;;;;12.02;2.58;;;5.50;79.10;;;;;;4975827;28;20032;-78
2023/01/14 07:02:44;;;;;;;11.45;2.75;;;5.50;79.20;;;;;;4993996;28;20084;-75
2023/01/14 07:05:09;;;;;;;12.73;2.85;;;5.50;79.20;;;;;;4976096;28;20026;-75
2023/01/14 07:07:35;;;;;;;12.07;2.70;;;5.60;79.20;;;;;;4976337;28;20122;-77
2023/01/14 07:10:00;;;;;;;11.27;2.15;;;5.60;79.10;;;;;;4976040;28;20035;-77
2023/01/14 07:12:26;;;;;;;11.77;2.28;;;5.50;79.00;;;;;;4976350;28;20027;-78
2023/01/14 07:14:52;;;;;;;11.93;2.45;;;5.50;78.90;;;;;;4976054;28;20030;-77
2023/01/14 07:17:17;;;;;;;16.45;2.65;;;5.50;79.00;;;;;;4976038;28;20030;-79
2023/01/14 07:19:43;;;;;;;14.38;2.17;;;5.60;78.90;;;;;;4976259;28;20034;-77
2023/01/14 07:22:08;;;;;;;8.50;1.63;;;5.60;78.90;;;;;;4976077;28;20084;-75
2023/01/14 07:24:37;;;;;;;7.63;1.65;;;5.60;78.50;;;;;;4975989;28;20037;-77
2023/01/14 07:27:03;;;;;;;5.75;1.70;;;5.70;78.20;;;;;;4993621;28;20014;-76
2023/01/14 07:29:29;;;;;;;12.65;2.17;;;5.70;78.00;;;;;;4976099;28;20033;-79
2023/01/14 07:31:54;;;;;;;3.75;1.10;;;5.80;77.80;;;;;;4980200;28;20031;-80
2023/01/14 07:34:20;;;;;;;7.82;1.20;;;5.90;77.90;;;;;;4975888;28;20088;-78
2023/01/14 07:36:45;;;;;;;4.82;1.33;;;6.10;77.40;;;;;;4976882;28;20027;-77
2023/01/14 07:39:11;;;;;;;4.18;0.60;;;6.20;77.10;;;;;;4975942;28;20374;-80
2023/01/14 07:41:37;;;;;;;2.50;0.50;;;6.40;76.30;;;;;;4975746;28;20058;-79
2023/01/14 07:44:04;;;;;;;5.00;0.88;;;6.50;75.40;;;;;;4975203;28;20471;-79
2023/01/14 07:46:30;;;;;;;1.67;0.85;;;6.70;75.00;;;;;;4975484;28;20099;-80
2023/01/14 07:48:56;;;;;;;2.95;0.75;;;6.80;74.80;;;;;;4975502;28;20040;-77
2023/01/14 07:51:23;;;;;;;4.45;0.68;;;6.80;74.40;;;;;;4975662;28;20546;-75
2023/01/14 07:53:49;;;;;;;6.63;0.70;;;6.80;74.10;;;;;;4974532;28;20454;-77
2023/01/14 07:56:16;;;;;;;2.90;0.90;;;6.80;74.00;;;;;;4975690;28;20031;-78
2023/01/14 07:58:41;;;;;;;5.18;0.90;;;6.80;74.20;;;;;;4975323;28;20034;-77
2023/01/14 08:01:09;;;;;;;9.00;1.05;;;6.80;74.20;;;;;;4975108;28;20092;-81
2023/01/14 08:03:36;;;;;;;3.42;0.35;;;6.80;74.00;;;;;;4976380;28;20089;-76
2023/01/14 08:06:03;;;;;;;5.15;0.77;;;6.80;74.20;;;;;;4975281;28;20524;-77
2023/01/14 08:08:29;;;;;;;5.72;1.10;;;6.80;73.80;;;;;;4974319;28;20461;-77
2023/01/14 08:10:58;;;;;;;5.32;1.08;;;6.90;74.30;;;;;;4975441;28;20101;-79
2023/01/14 08:13:24;;;;;;;3.13;0.70;;;7.00;73.80;;;;;;4975131;28;20030;-78
2023/01/14 08:16:01;;;;;;;5.30;0.88;;;7.10;73.30;;;;;;4974997;28;20060;-78
2023/01/14 08:18:29;;;;;;;3.00;0.60;;;7.50;73.50;;;;;;4959023;28;20026;-80
2023/01/14 08:20:58;;;;;;;3.28;0.57;;;7.60;72.70;;;;;;4975228;28;20038;-81
2023/01/14 08:23:24;;;;;;;8.15;1.63;;;7.70;70.70;;;;;;4975160;28;20022;-78
2023/01/14 08:25:49;;;;;;;3.58;0.70;;;7.70;71.50;;;;;;4974938;28;20030;-78
2023/01/14 08:28:15;;;;;;;3.55;0.60;;;7.80;71.50;;;;;;4974587;28;20030;-79
2023/01/14 08:30:40;;;;;;;2.80;0.65;;;7.80;69.90;;;;;;4974936;28;20022;-78
2023/01/14 08:33:07;;;;;;;7.93;1.20;;;7.90;69.90;;;;;;4975193;28;20037;-78
2023/01/14 08:35:39;;;;;;;4.15;1.25;;;8.10;70.40;;;;;;4992164;28;20058;-79
2023/01/14 08:38:04;;;;;;;5.22;1.58;;;8.20;70.30;;;;;;4974960;28;20026;-78
2023/01/14 08:40:30;;;;;;;4.78;1.30;;;8.30;68.50;;;;;;4974831;28;20442;-78
2023/01/14 08:42:56;;;;;;;4.70;1.45;;;8.30;68.30;;;;;;4974688;28;20019;-79
2023/01/14 08:45:22;;;;;;;5.70;1.45;;;8.30;66.50;;;;;;4974657;28;20030;-78
2023/01/14 08:47:48;;;;;;;7.80;1.45;;;7.90;67.00;;;;;;4974588;28;20459;-77
2023/01/14 08:50:14;;;;;;;7.88;1.60;;;7.70;69.10;;;;;;4974955;28;20037;-75
2023/01/14 08:52:40;;;;;;;6.85;1.38;;;7.60;69.10;;;;;;4974732;28;20022;-76
2023/01/14 08:55:06;;;;;;;8.18;1.23;;;7.50;69.50;;;;;;4974606;28;20046;-76
2023/01/14 08:57:32;;;;;;;8.00;1.20;;;7.40;69.70;;;;;;4974264;28;20423;-75
2023/01/14 08:59:58;;;;;;;6.63;1.45;;;7.40;70.30;;;;;;4991493;28;20038;-75
2023/01/14 09:02:23;;;;;;;5.40;1.33;;;7.30;71.20;;;;;;4974306;28;20026;-75
2023/01/14 09:04:50;;;;;;;4.70;0.90;;;7.20;72.30;;;;;;4974540;28;20378;-76
2023/01/14 09:18:12;;;;;;;6.32;1.42;;;7.60;70.70;;;;;;4991582;28;20507;-78
2023/01/14 09:20:40;;;;;;;5.60;1.20;;;7.60;70.40;;;;;;4973985;28;20026;-78
2023/01/14 09:23:08;;;;;;;5.90;1.55;;;7.50;70.60;;;;;;4974043;28;20031;-80
2023/01/14 09:25:33;;;;;;;8.13;2.20;;;7.60;70.80;;;;;;5028734;28;20028;-79
2023/01/14 09:27:59;;;;;;;6.95;1.30;;;7.70;70.70;;;;;;5055078;28;20464;-77
2023/01/14 09:30:26;;;;;;;5.32;1.33;;;7.80;69.70;;;;;;5055479;28;20054;-77
2023/01/14 09:32:53;;;;;;;5.60;1.10;;;7.90;69.30;;;;;;5055531;28;20115;-76
2023/01/14 09:35:19;;;;;;;7.00;1.55;;;8.00;69.50;;;;;;5052446;28;20476;-78
2023/01/14 09:37:44;;;;;;;5.05;1.58;;;8.10;68.10;;;;;;4973614;28;20029;-78
2023/01/14 09:40:11;;;;;;;4.28;0.90;;;8.30;67.70;;;;;;4957602;28;20398;-79
2023/01/14 09:42:47;;;;;;;6.25;1.48;;;8.40;67.60;;;;;;4972851;28;20026;-77
2023/01/14 09:45:30;;;;;;;10.27;1.52;;;8.50;67.10;;;;;;4991124;28;20371;-78
2023/01/14 09:48:04;;;;;;;2.67;1.20;;;8.50;66.70;;;;;;4990856;28;20113;-79
2023/01/14 09:50:48;;;;;;;4.90;1.20;;;8.50;66.90;;;;;;4973405;28;20092;-79
2023/01/14 09:53:39;;;;;;;5.25;1.35;;;8.60;66.60;;;;;;4973465;28;20493;-75
2023/01/14 09:56:13;;;;;;;3.38;1.33;;;8.50;67.10;;;;;;4973481;28;20068;-80
2023/01/14 09:58:47;;;;;;;5.40;1.52;;;8.50;67.20;;;;;;4973518;28;20034;-77
2023/01/14 10:01:43;;;;;;;3.88;1.25;;;8.50;67.20;;;;;;4973668;28;20027;-77
2023/01/14 10:04:27;;;;;;;1.92;0.60;;;8.50;67.60;;;;;;4973599;28;20055;-76
2023/01/14 10:06:56;;;;;;;8.00;0.95;;;8.50;67.10;;;;;;4972959;28;20031;-77
2023/01/14 10:09:27;;;;;;;4.60;1.35;;;8.60;67.40;;;;;;4989738;28;20053;-77
2023/01/14 10:11:59;;;;;;;4.65;0.90;;;8.70;67.10;;;;;;4973154;28;20457;-78
2023/01/14 10:14:33;;;;;;;4.80;1.38;;;8.60;66.60;;;;;;4972827;28;20289;-79
2023/01/14 10:17:04;;;;;;;5.30;1.23;;;8.70;66.70;;;;;;4972882;28;20050;-76
2023/01/14 10:19:49;;;;;;;4.53;1.20;;;8.60;67.00;;;;;;4972992;28;20044;-79
2023/01/14 10:22:35;;;;;;;7.32;1.38;;;8.50;67.40;;;;;;4973410;28;20373;-77
2023/01/14 10:25:04;;;;;;;5.10;1.17;;;8.60;66.90;;;;;;4973375;28;20027;-77
2023/01/14 10:27:33;;;;;;;4.75;1.38;;;8.60;67.10;;;;;;4989044;28;20022;-78
2023/01/14 10:30:21;;;;;;;4.18;1.35;;;8.60;66.90;;;;;;4972650;28;20401;-76
2023/01/14 10:32:52;;;;;;;2.58;0.95;;;8.50;67.50;;;;;;4976257;28;20019;-76
2023/01/14 10:35:31;;;;;;;6.80;0.98;;;8.40;68.00;;;;;;4976819;28;20375;-77
2023/01/14 10:37:57;;;;;;;6.00;1.00;;;8.40;67.30;;;;;;4976748;28;20034;-76
2023/01/14 10:40:24;;;;;;;4.22;1.05;;;8.40;67.70;;;;;;4976264;28;20026;-77
2023/01/14 10:42:52;;;;;;;8.40;1.58;;;8.50;67.80;;;;;;4976136;28;20022;-76
2023/01/14 10:45:18;;;;;;;3.67;1.38;;;8.50;67.70;;;;;;4976246;28;20122;-76
2023/01/14 10:47:47;;;;;;;5.00;1.13;;;8.50;67.10;;;;;;4960621;28;20060;-79
2023/01/14 10:50:28;;;;;;;4.15;1.20;;;8.60;66.90;;;;;;4976371;28;20034;-77
2023/01/14 10:52:56;;;;;;;3.25;0.82;;;8.60;65.40;;;;;;4976455;28;20027;-77
2023/01/14 10:55:31;;;;;;;3.78;1.00;;;8.70;65.60;;;;;;4976057;28;20103;-78
2023/01/14 10:58:03;;;;;;;3.70;0.90;;;8.70;65.80;;;;;;4976536;28;20030;-77
2023/01/14 11:00:41;;;;;;;5.90;1.20;;;8.80;65.40;;;;;;4975942;28;20018;-75
2023/01/14 11:03:09;;;;;;;4.63;1.30;;;8.80;65.50;;;;;;4973319;28;20105;-75
2023/01/14 11:05:40;;;;;;;4.38;1.98;;;8.90;66.40;;;;;;4992495;28;20027;-76
2023/01/14 11:08:30;;;;;;;6.55;1.95;;;8.80;65.80;;;;;;5060012;28;20055;-76
2023/01/14 11:10:58;;;;;;;5.90;2.10;;;8.80;65.90;;;;;;5057775;28;20473;-76
2023/01/14 11:13:32;;;;;;;5.75;1.40;;;8.70;66.10;;;;;;5057901;28;20024;-76
2023/01/14 11:15:58;;;;;;;5.93;1.40;;;8.70;65.00;;;;;;5057900;28;20075;-79
2023/01/14 11:18:26;;;;;;;9.07;2.03;;;8.70;65.10;;;;;;5076105;28;20016;-84
2023/01/14 11:20:53;;;;;;;3.25;0.85;;;8.60;65.70;;;;;;5076512;28;20047;-83
2023/01/14 11:23:27;;;;;;;2.95;1.13;;;8.70;65.30;;;;;;5057867;28;20032;-84
2023/01/14 11:25:54;;;;;;;6.25;1.20;;;8.60;65.50;;;;;;5058498;28;20023;-85
2023/01/14 11:28:20;;;;;;;3.75;1.33;;;8.60;64.70;;;;;;5058192;28;20077;-78
2023/01/14 11:30:50;;;;;;;2.33;0.80;;;8.50;65.00;;;;;;5057695;28;20036;-84
2023/01/14 11:33:22;;;;;;;1.98;0.95;;;8.50;64.00;;;;;;5058181;28;20028;-82
2023/01/14 11:35:57;;;;;;;2.97;1.02;;;8.50;65.10;;;;;;5041242;28;20040;-78
2023/01/14 11:38:23;;;;;;;;;;;8.60;65.00;;;;;;5058106;28;20526;-78
2023/01/14 11:43:52;;;;;;;5.30;1.08;;;8.60;63.30;;;;;;5074723;28;19911;-81
2023/01/14 11:46:20;;;;;;;3.90;0.80;;;8.60;63.30;;;;;;5058627;28;20388;-80
2023/01/14 11:49:05;;;;;;;2.88;0.82;;;8.60;63.10;;;;;;5041825;28;20037;-80
2023/01/14 11:51:32;;;;;;;3.92;0.95;;;8.50;63.40;;;;;;5058036;28;20043;-79
2023/01/14 11:53:57;;;;;;;6.05;1.08;;;8.50;63.40;;;;;;5057945;28;20072;-77
2023/01/14 11:56:28;;;;;;;4.28;0.80;;;8.50;62.50;;;;;;5057571;28;20032;-78
2023/01/14 11:58:54;;;;;;;2.05;0.80;;;8.50;62.90;;;;;;4999071;28;20031;-79
2023/01/14 12:01:47;;;;;;;4.90;0.95;;;8.50;62.80;;;;;;4956299;28;20022;-76
2023/01/14 12:04:21;;;;;;;2.00;0.90;;;8.50;63.10;;;;;;4953028;28;20039;-80
2023/01/14 12:06:53;;;;;;;4.85;1.13;;;8.50;62.40;;;;;;4955682;28;20076;-80
2023/01/14 12:09:37;;;;;;;3.20;0.80;;;8.60;61.80;;;;;;4956269;28;20080;-80
2023/01/14 12:12:24;;;;;;;1.83;0.65;;;8.70;61.20;;;;;;4956383;28;20022;-79
2023/01/14 12:17:51;;;;;;;4.80;0.85;;;8.70;59.50;;;;;;4973537;28;20104;-80
2023/01/14 12:20:24;;;;;;;3.20;0.73;;;8.70;59.20;;;;;;4955685;28;20467;-79
2023/01/14 12:23:05;;;;;;;2.58;0.68;;;8.80;58.30;;;;;;4955739;28;20042;-77
2023/01/14 12:25:41;;;;;;;3.40;0.60;;;8.70;58.50;;;;;;4955780;28;20089;-75
2023/01/14 12:28:30;;;;;;;1.58;0.52;;;8.80;57.50;;;;;;4972964;28;20035;-78
2023/01/14 12:31:38;;;;;;;2.17;0.82;;;8.80;56.50;;;;;;4955556;28;20126;-81
2023/01/14 12:34:48;;;;;;;3.40;0.50;;;8.80;56.40;;;;;;4955776;28;20060;-77
2023/01/14 12:37:27;;;;;;;2.15;0.63;;;8.90;56.30;;;;;;4967343;28;20031;-79
2023/01/14 12:45:54;;;;;;;3.33;1.00;;;9.00;55.80;;;;;;4922427;28;20098;-81
2023/01/14 12:48:23;;;;;;;2.58;0.80;;;9.00;55.80;;;;;;4939680;28;20030;-78
2023/01/14 12:50:57;;;;;;;1.95;0.60;;;9.00;55.90;;;;;;4955466;28;20482;-79
2023/01/14 12:53:35;;;;;;;2.03;0.70;;;9.10;56.00;;;;;;4954885;28;20057;-80
2023/01/14 12:56:05;;;;;;;1.45;0.40;;;9.10;54.90;;;;;;4955256;28;20041;-78
2023/01/14 12:58:34;;;;;;;2.35;0.57;;;9.10;55.40;;;;;;4955370;28;20025;-78
2023/01/14 13:01:07;;;;;;;2.30;0.70;;;9.20;55.30;;;;;;4955333;28;20363;-80
2023/01/14 13:03:47;;;;;;;2.25;0.50;;;9.20;54.70;;;;;;4955518;28;20034;-78
2023/01/14 13:06:31;;;;;;;2.03;0.75;;;9.30;55.40;;;;;;4955583;28;20027;-80
2023/01/14 13:09:01;;;;;;;5.20;1.70;;;9.30;55.20;;;;;;4955624;28;20177;-80
2023/01/14 13:11:39;;;;;;;2.67;0.63;;;9.40;55.10;;;;;;4956087;28;20054;-79
2023/01/14 13:14:15;;;;;;;1.35;0.55;;;9.60;54.10;;;;;;4956449;28;20411;-76
2023/01/14 13:16:42;;;;;;;2.38;0.52;;;9.60;53.30;;;;;;4972504;28;20019;-74
2023/01/14 13:19:26;;;;;;;3.70;0.50;;;9.60;52.90;;;;;;4955279;28;20066;-79
2023/01/14 13:22:03;;;;;;;1.88;0.60;;;9.70;53.00;;;;;;4954887;28;20019;-81
2023/01/14 13:24:37;;;;;;;1.67;0.50;;;9.70;52.60;;;;;;4972035;28;20233;-79
2023/01/14 13:27:34;;;;;;;2.00;0.60;;;10.00;52.20;;;;;;4972017;28;20026;-77
2023/01/14 13:30:18;;;;;;;2.83;0.68;;;10.30;49.60;;;;;;4973526;28;20038;-77
2023/01/14 13:32:53;;;;;;;1.02;0.52;;;10.50;48.80;;;;;;4954449;28;20031;-75
2023/01/14 13:35:21;;;;;;;1.23;0.47;;;10.60;48.30;;;;;;4954611;28;20084;-80
2023/01/14 13:37:47;;;;;;;1.95;0.70;;;10.60;47.60;;;;;;4954761;28;20046;-75
2023/01/14 13:40:34;;;;;;;3.13;0.55;;;10.60;47.70;;;;;;4954665;28;20023;-78
2023/01/14 13:43:00;;;;;;;2.53;0.55;;;10.60;47.10;;;;;;4955043;28;20026;-80
2023/01/14 13:45:27;;;;;;;1.92;0.50;;;10.60;47.20;;;;;;4962907;28;20051;-78
2023/01/14 13:48:01;;;;;;;2.05;0.75;;;10.60;47.30;;;;;;4974858;28;20506;-80
2023/01/14 13:50:29;;;;;;;1.58;0.70;;;10.50;48.30;;;;;;4971971;28;20478;-81
2023/01/14 13:53:23;;;;;;;4.70;0.77;;;10.30;47.00;;;;;;4954282;28;20022;-78
2023/01/14 13:55:58;;;;;;;2.83;1.38;;;10.20;46.50;;;;;;4954461;28;20483;-77
2023/01/14 13:58:36;;;;;;;1.95;0.65;;;10.10;49.20;;;;;;4971634;28;20102;-76